Time;durP1;ratioP1;P1;durP2;ratioP2;P2;SDS_P1;SDS_P2;PMS_P1;PMS_P2;Temp;Humidity;BMP_temperature;BMP_pressure;BME280_temperature;BME280_humidity;BME280_pressure;Samples;Min_cycle;Max_cycle;Signal;HPM_P1;HPM_P2
2022/04/22 00:00:12;;;;;;;11.85;7.25;;;;;;;3.36;100.00;99119.88;5171644;27;20050;-59
2022/04/22 00:02:39;;;;;;;11.93;7.10;;;;;;;3.32;100.00;99124.34;5171623;27;20050;-59
2022/04/22 00:05:06;;;;;;;9.38;5.97;;;;;;;3.28;100.00;99121.47;5171546;27;20046;-59
2022/04/22 00:07:33;;;;;;;11.95;6.88;;;;;;;3.28;100.00;99129.59;5171686;27;20428;-59
2022/04/22 00:09:59;;;;;;;9.60;7.28;;;;;;;3.21;100.00;99123.84;5171439;27;20050;-59
2022/04/22 00:12:25;;;;;;;10.30;7.35;;;;;;;3.24;100.00;99122.44;5171651;27;20069;-59
2022/04/22 00:14:52;;;;;;;10.43;7.22;;;;;;;3.26;100.00;99112.06;5171701;27;20085;-59
2022/04/22 00:17:18;;;;;;;11.57;8.00;;;;;;;3.24;100.00;99111.59;5171407;27;20134;-59
2022/04/22 00:19:44;;;;;;;9.38;7.25;;;;;;;3.25;100.00;99108.53;5171659;27;20077;-59
2022/04/22 00:22:10;;;;;;;11.23;8.15;;;;;;;3.23;100.00;99112.69;5171319;27;20050;-59
2022/04/22 00:24:37;;;;;;;10.90;7.53;;;;;;;3.13;100.00;99105.66;5171469;27;20051;-59
2022/04/22 00:27:03;;;;;;;10.95;7.80;;;;;;;3.12;100.00;99100.56;5171203;27;20501;-59
2022/04/22 00:29:30;;;;;;;11.68;7.80;;;;;;;3.09;100.00;99099.28;5174153;27;20046;-59
2022/04/22 00:31:56;;;;;;;11.73;7.85;;;;;;;3.10;100.00;99100.91;5174779;27;20557;-59
2022/04/22 00:34:22;;;;;;;12.50;8.68;;;;;;;3.04;100.00;99100.25;5174750;27;20082;-59
2022/04/22 00:36:49;;;;;;;10.88;8.15;;;;;;;3.06;100.00;99116.16;5174851;27;20046;-59
2022/04/22 00:39:15;;;;;;;10.75;8.02;;;;;;;3.06;100.00;99108.84;5174788;27;20046;-59
2022/04/22 00:41:42;;;;;;;11.50;7.90;;;;;;;3.04;100.00;99108.38;5174718;27;20500;-59
2022/04/22 00:44:09;;;;;;;13.43;8.05;;;;;;;3.04;100.00;99116.50;5175029;27;20054;-59
2022/04/22 00:46:35;;;;;;;12.32;8.68;;;;;;;3.02;100.00;99113.28;5174740;27;20050;-59
2022/04/22 00:49:01;;;;;;;13.63;7.38;;;;;;;3.04;100.00;99111.06;5174836;27;20046;-59
2022/04/22 00:51:27;;;;;;;11.48;7.82;;;;;;;2.98;100.00;99106.13;5174952;27;20447;-59
2022/04/22 00:53:54;;;;;;;12.57;8.32;;;;;;;3.02;100.00;99105.16;5174423;27;20181;-59
2022/04/22 00:56:20;;;;;;;13.60;9.38;;;;;;;3.02;100.00;99104.38;5174496;27;20098;-59
2022/04/22 00:58:49;;;;;;;9.60;6.97;;;;;;;3.03;100.00;99114.91;5174273;27;20091;-59
2022/04/22 01:01:15;;;;;;;12.63;8.18;;;;;;;3.02;100.00;99107.09;5174619;27;20054;-59
2022/04/22 01:09:47;;;;;;;14.73;7.90;;;;;;;2.99;100.00;99107.72;5174483;27;20527;-59
2022/04/22 01:11:59;;;;;;;11.88;8.23;;;;;;;2.93;100.00;99122.50;5174181;27;20458;-59
2022/04/22 01:14:26;;;;;;;12.10;8.40;;;;;;;2.92;100.00;99126.34;5174029;27;20046;-59
2022/04/22 01:16:52;;;;;;;16.60;8.85;;;;;;;2.91;100.00;99120.13;5174005;27;20050;-59
2022/04/22 01:19:18;;;;;;;12.85;9.23;;;;;;;2.94;100.00;99111.38;5174008;27;20054;-59
2022/04/22 01:21:45;;;;;;;14.32;9.15;;;;;;;2.97;100.00;99123.50;5174232;27;20053;-59
2022/04/22 01:24:11;;;;;;;15.00;9.27;;;;;;;2.96;100.00;99114.56;5173897;27;20684;-59
2022/04/22 01:26:38;;;;;;;11.82;8.88;;;;;;;2.97;100.00;99107.25;5173951;27;20102;-59
2022/04/22 01:29:06;;;;;;;13.55;8.18;;;;;;;2.93;100.00;99111.69;5174075;27;20050;-59
2022/04/22 01:31:33;;;;;;;16.85;9.18;;;;;;;2.86;100.00;99109.44;5173889;27;20057;-59
2022/04/22 01:33:59;;;;;;;13.15;8.70;;;;;;;2.87;100.00;99094.00;5173806;27;20061;-59
2022/04/22 01:36:25;;;;;;;12.93;9.27;;;;;;;2.90;100.00;99104.19;5173973;27;20557;-59
2022/04/22 01:38:52;;;;;;;13.32;9.02;;;;;;;2.87;100.00;99099.44;5173367;27;20046;-59
2022/04/22 01:41:18;;;;;;;14.20;9.35;;;;;;;2.83;100.00;99107.34;5173922;27;20046;-59
2022/04/22 01:43:44;;;;;;;13.63;9.25;;;;;;;2.83;100.00;99115.47;5173620;27;20065;-59
2022/04/22 01:46:10;;;;;;;14.15;10.10;;;;;;;2.83;100.00;99110.88;5173590;27;20523;-59
2022/04/22 01:48:37;;;;;;;15.32;9.85;;;;;;;2.80;100.00;99108.81;5173747;27;20043;-59
2022/04/22 01:51:03;;;;;;;12.93;8.98;;;;;;;2.81;100.00;99102.25;5173491;27;20050;-59
2022/04/22 01:53:29;;;;;;;20.17;10.00;;;;;;;2.81;100.00;99113.09;5173314;27;20050;-59
2022/04/22 01:55:56;;;;;;;15.02;9.38;;;;;;;2.81;100.00;99109.59;5173419;27;20527;-59
2022/04/22 01:58:22;;;;;;;14.73;9.13;;;;;;;2.80;100.00;99103.38;5173388;27;20046;-59
2022/04/22 02:00:48;;;;;;;13.52;9.20;;;;;;;2.74;100.00;99107.34;5173371;27;20054;-59
2022/04/22 02:03:14;;;;;;;12.20;9.02;;;;;;;2.78;100.00;99102.09;5173702;27;20053;-59
2022/04/22 02:05:41;;;;;;;16.90;9.43;;;;;;;2.76;100.00;99102.41;5173241;27;20094;-59
2022/04/22 02:08:08;;;;;;;13.13;9.07;;;;;;;2.72;100.00;99101.44;5173848;27;20042;-59
2022/04/22 02:10:34;;;;;;;15.88;10.45;;;;;;;2.71;100.00;99107.97;5173435;27;20046;-59
2022/04/22 02:13:01;;;;;;;16.25;9.88;;;;;;;2.81;100.00;99117.72;5173259;27;20886;-59
2022/04/22 02:15:28;;;;;;;13.73;9.38;;;;;;;2.69;100.00;99112.88;5173526;27;20050;-59
2022/04/22 02:17:54;;;;;;;18.23;10.05;;;;;;;2.69;100.00;99117.50;5173250;27;20824;-59
2022/04/22 02:20:21;;;;;;;13.00;9.18;;;;;;;2.78;100.00;99111.00;5173122;27;20047;-59
2022/04/22 02:22:47;;;;;;;14.18;9.70;;;;;;;2.74;100.00;99117.38;5173227;27;20050;-59
2022/04/22 02:25:13;;;;;;;12.93;9.52;;;;;;;2.75;100.00;99121.69;5173019;27;20389;-59
2022/04/22 02:30:24;;;;;;;14.70;9.77;;;;;;;2.66;100.00;99128.97;5172949;27;20129;-59
2022/04/22 02:32:51;;;;;;;18.13;9.90;;;;;;;2.69;100.00;99125.63;5172694;27;20047;-59
2022/04/22 02:35:19;;;;;;;16.17;10.60;;;;;;;2.65;100.00;99128.16;5172630;27;20046;-59
2022/04/22 02:37:46;;;;;;;14.30;10.57;;;;;;;2.68;100.00;99118.63;5173002;27;20401;-58
2022/04/22 02:45:26;;;;;;;13.65;9.95;;;;;;;2.65;100.00;99125.47;5172905;27;20563;-59
2022/04/22 02:45:43;;;;;;;15.30;10.00;;;;;;;2.65;100.00;99130.09;5172726;27;20080;-59
2022/04/22 02:48:10;;;;;;;13.00;9.00;;;;;;;2.63;100.00;99141.19;5172835;27;20053;-59
2022/04/22 02:50:36;;;;;;;14.90;9.48;;;;;;;2.63;100.00;99122.25;5172075;27;20065;-59
2022/04/22 02:53:02;;;;;;;16.38;10.25;;;;;;;2.67;100.00;99127.88;5172500;27;20050;-59
2022/04/22 02:55:28;;;;;;;15.00;9.52;;;;;;;2.69;100.00;99125.63;5172568;27;20050;-59
2022/04/22 02:57:55;;;;;;;13.55;9.38;;;;;;;2.69;100.00;99134.53;5172856;27;20049;-59
2022/04/22 03:00:21;;;;;;;16.60;10.25;;;;;;;2.66;100.00;99137.88;5172723;27;20046;-59
2022/04/22 03:02:48;;;;;;;17.25;10.90;;;;;;;2.63;100.00;99132.28;5172542;27;20196;-59
2022/04/22 03:05:14;;;;;;;12.57;9.55;;;;;;;2.63;100.00;99146.63;5172608;27;20046;-59
2022/04/22 03:07:41;;;;;;;14.98;9.88;;;;;;;2.66;100.00;99146.00;5172449;27;20042;-59
2022/04/22 03:10:08;;;;;;;20.10;11.38;;;;;;;2.73;100.00;99156.38;5172231;27;20046;-59
2022/04/22 03:12:34;;;;;;;18.23;10.50;;;;;;;2.75;100.00;99157.66;5172100;27;20102;-59
2022/04/22 03:15:00;;;;;;;16.33;10.23;;;;;;;2.75;100.00;99154.94;5172457;27;20445;-59
2022/04/22 03:17:27;;;;;;;15.45;9.82;;;;;;;2.75;100.00;99162.28;5172224;27;20046;-59
2022/04/22 03:19:54;;;;;;;12.80;9.93;;;;;;;2.76;100.00;99170.06;5172384;27;20428;-59
2022/04/22 03:22:20;;;;;;;15.85;9.73;;;;;;;2.80;100.00;99173.78;5172151;27;20046;-59
2022/04/22 03:24:46;;;;;;;16.02;11.18;;;;;;;2.81;100.00;99169.94;5172319;27;20556;-59
2022/04/22 03:27:12;;;;;;;15.75;9.43;;;;;;;2.90;100.00;99170.00;5172341;27;20477;-59
2022/04/22 03:29:38;;;;;;;14.13;9.48;;;;;;;3.06;100.00;99171.13;5172375;27;20051;-59
2022/04/22 03:32:06;;;;;;;12.40;8.40;;;;;;;3.30;100.00;99162.59;5171845;27;20054;-59
2022/04/22 03:34:32;;;;;;;13.90;9.82;;;;;;;3.80;100.00;99174.09;5172292;27;20051;-59
2022/04/22 03:36:59;;;;;;;13.25;8.88;;;;;;;4.14;100.00;99193.06;5172092;27;20095;-59
2022/04/22 03:39:25;;;;;;;11.07;8.40;;;;;;;4.54;100.00;99192.84;5172037;27;20056;-60
2022/04/22 03:41:52;;;;;;;15.60;8.55;;;;;;;4.77;100.00;99209.69;5172198;27;20054;-59
2022/04/22 03:44:18;;;;;;;11.13;8.02;;;;;;;4.95;100.00;99238.38;5171991;27;20053;-59
2022/04/22 03:46:45;;;;;;;12.18;7.75;;;;;;;5.00;100.00;99288.22;5171871;27;20046;-60
2022/04/22 03:49:11;;;;;;;9.98;7.55;;;;;;;5.07;100.00;99332.81;5171778;27;20493;-59
2022/04/22 03:51:37;;;;;;;12.52;8.20;;;;;;;5.14;100.00;99383.94;5171803;27;20054;-60
2022/04/22 03:54:04;;;;;;;13.85;7.65;;;;;;;5.38;100.00;99413.31;5171353;27;20050;-60
2022/04/22 03:59:14;;;;;;;9.35;7.10;;;;;;;5.84;100.00;99513.19;5171915;27;20462;-59
2022/04/22 04:01:41;;;;;;;9.32;6.78;;;;;;;5.77;100.00;99553.69;5171704;27;20496;-60
2022/04/22 04:04:07;;;;;;;11.77;7.38;;;;;;;5.91;100.00;99594.31;5175266;27;20089;-60
2022/04/22 04:06:35;;;;;;;11.40;8.02;;;;;;;5.90;100.00;99623.44;5175136;27;20046;-60
2022/04/22 04:17:15;;;;;;;10.13;7.88;;;;;;;5.01;100.00;99672.97;5175149;27;20053;-60
2022/04/22 04:25:18;;;;;;;12.30;7.88;;;;;;;5.33;100.00;99629.06;5137394;27;20579;-60
2022/04/22 04:27:45;;;;;;;10.55;7.82;;;;;;;5.19;100.00;99636.53;5174824;27;20076;-60
2022/04/22 04:30:12;;;;;;;11.45;8.35;;;;;;;5.00;100.00;99646.88;5174693;27;20050;-59
2022/04/22 04:32:38;;;;;;;12.43;8.15;;;;;;;5.09;100.00;99632.19;5174760;27;20054;-60
2022/04/22 04:35:05;;;;;;;12.45;8.50;;;;;;;5.64;100.00;99628.91;5174952;27;20398;-60
2022/04/22 04:37:32;;;;;;;10.57;7.80;;;;;;;6.18;100.00;99644.09;5174671;27;20051;-59
2022/04/22 04:39:58;;;;;;;13.82;7.40;;;;;;;5.93;100.00;99697.41;5174514;27;20046;-60
2022/04/22 04:42:25;;;;;;;10.48;8.00;;;;;;;5.28;100.00;99713.47;5174448;27;20054;-59
2022/04/22 04:44:52;;;;;;;16.35;8.10;;;;;;;4.94;100.00;99700.59;5174495;27;20497;-60
2022/04/22 04:47:18;;;;;;;11.93;8.27;;;;;;;4.80;100.00;99691.72;5174690;27;20050;-59
2022/04/22 04:49:46;;;;;;;12.55;9.23;;;;;;;4.80;100.00;99659.13;5174375;27;20523;-60
2022/04/22 04:52:12;;;;;;;11.65;8.57;;;;;;;5.29;100.00;99625.34;5174176;27;20050;-59
2022/04/22 04:54:38;;;;;;;12.40;8.73;;;;;;;6.27;100.00;99614.91;5174732;27;20046;-59
2022/04/22 04:57:05;;;;;;;8.98;7.70;;;;;;;6.27;100.00;99667.44;5174158;27;20054;-60
2022/04/22 04:59:32;;;;;;;11.05;8.00;;;;;;;6.26;100.00;99697.72;5174309;27;20046;-59
2022/04/22 05:01:59;;;;;;;15.50;9.18;;;;;;;6.44;100.00;99701.22;5174135;27;20054;-60
2022/04/22 05:04:25;;;;;;;12.75;8.57;;;;;;;6.23;100.00;99718.22;5174188;27;20061;-59
2022/04/22 05:06:51;;;;;;;13.13;8.07;;;;;;;5.83;100.00;99728.44;5173914;27;20507;-59
2022/04/22 05:09:17;;;;;;;10.85;8.25;;;;;;;5.47;100.00;99721.38;5173783;27;20050;-59
2022/04/22 05:11:43;;;;;;;11.68;8.52;;;;;;;5.31;100.00;99709.34;5173516;27;20042;-57
2022/04/22 05:14:09;;;;;;;12.63;8.23;;;;;;;5.31;100.00;99679.44;5173309;27;20416;-61
2022/04/22 05:16:36;;;;;;;15.25;9.52;;;;;;;5.62;100.00;99647.44;5174066;27;20054;-59
2022/04/22 05:19:02;;;;;;;10.95;8.05;;;;;;;6.22;100.00;99639.59;5173387;27;20046;-59
2022/04/22 05:21:29;;;;;;;14.38;8.40;;;;;;;7.14;100.00;99658.13;5174217;27;20049;-56
2022/04/22 05:23:55;;;;;;;12.10;8.00;;;;;;;8.05;100.00;99686.50;5173830;27;20102;-58
2022/04/22 05:26:23;;;;;;;16.08;7.53;;;;;;;8.80;100.00;99721.16;5174179;27;20042;-57
2022/04/22 05:28:49;;;;;;;15.82;8.13;;;;;;;8.80;100.00;99688.34;5173805;27;20413;-58
2022/04/22 05:34:00;;;;;;;;;;;;;;;8.12;100.00;99528.38;5174353;27;20512;-57
2022/04/22 05:36:27;;;;;;;11.93;6.45;;;;;;;9.13;100.00;99530.41;5173522;27;19922;-58
2022/04/22 05:38:53;;;;;;;12.48;7.43;;;;;;;9.65;100.00;99414.53;5173683;27;20050;-58
2022/04/22 05:41:19;;;;;;;12.13;7.43;;;;;;;9.76;100.00;99266.16;5173373;27;20569;-58
2022/04/22 05:43:46;;;;;;;9.65;7.60;;;;;;;9.99;100.00;99217.78;5173691;27;20428;-58
2022/04/22 05:46:12;;;;;;;11.63;7.32;;;;;;;10.59;100.00;99089.34;5173092;27;20134;-58
2022/04/22 05:48:39;;;;;;;8.13;6.80;;;;;;;10.65;100.00;98977.44;5172949;27;20057;-58
2022/04/22 05:51:05;;;;;;;7.78;6.63;;;;;;;11.14;100.00;98971.06;5173093;27;20049;-58
2022/04/22 05:53:32;;;;;;;9.57;8.07;;;;;;;11.43;100.00;98793.78;5173549;27;20065;-58
2022/04/22 05:55:58;;;;;;;18.95;7.05;;;;;;;11.52;100.00;98683.63;5173352;27;20057;-58
2022/04/22 05:58:24;;;;;;;10.48;7.20;;;;;;;11.72;100.00;98684.91;5173542;27;20387;-58
2022/04/22 06:00:50;;;;;;;11.00;7.20;;;;;;;12.02;100.00;98612.50;5173093;27;20140;-56
2022/04/22 06:03:16;;;;;;;7.65;6.18;;;;;;;11.86;100.00;98604.63;5172833;27;20057;-56
2022/04/22 06:05:43;;;;;;;10.40;7.00;;;;;;;12.12;100.00;98628.22;5172725;27;20543;-56
2022/04/22 06:10:55;;;;;;;11.00;7.32;;;;;;;12.47;100.00;98541.53;5172914;27;20126;-58
2022/04/22 06:13:21;;;;;;;8.93;6.93;;;;;;;12.47;100.00;98468.06;5172746;27;20046;-58
2022/04/22 06:15:47;;;;;;;9.55;6.88;;;;;;;12.48;100.00;98455.09;5172707;27;20061;-59
2022/04/22 06:18:13;;;;;;;7.03;5.95;;;;;;;12.57;100.00;98501.47;5172728;27;20476;-59
2022/04/22 06:20:39;;;;;;;7.68;6.88;;;;;;;12.59;100.00;98460.59;5172823;27;20050;-59
2022/04/22 06:23:06;;;;;;;9.98;7.10;;;;;;;12.83;100.00;98446.03;5172496;27;20412;-58
2022/04/22 06:25:32;;;;;;;11.35;6.95;;;;;;;13.41;100.00;98436.38;5171840;27;20501;-57
2022/04/22 06:27:59;;;;;;;8.48;6.13;;;;;;;13.25;100.00;98347.19;5172247;27;20073;-57
2022/04/22 06:30:25;;;;;;;7.80;6.68;;;;;;;13.74;100.00;98370.84;5172046;27;20494;-58
2022/04/22 06:32:53;;;;;;;8.20;6.20;;;;;;;13.64;100.00;98300.88;5172551;27;20052;-58
2022/04/22 06:35:20;;;;;;;11.60;7.18;;;;;;;13.42;100.00;98294.75;5172314;27;20046;-58
2022/04/22 06:37:48;;;;;;;10.55;7.07;;;;;;;13.20;100.00;98315.34;5172342;27;20042;-58
2022/04/22 06:45:48;;;;;;;7.78;6.45;;;;;;;14.04;100.00;98328.09;5172470;27;20045;-58
2022/04/22 06:48:16;;;;;;;7.85;6.13;;;;;;;14.50;100.00;98289.03;5172547;27;20436;-59
2022/04/22 06:50:43;;;;;;;7.85;6.55;;;;;;;14.32;100.00;98280.16;5172462;27;20046;-57
2022/04/22 06:53:10;;;;;;;7.80;6.00;;;;;;;13.72;100.00;98267.78;5171835;27;20095;-58
2022/04/22 06:55:37;;;;;;;6.45;5.72;;;;;;;13.30;100.00;98333.81;5172244;27;20046;-58
2022/04/22 06:58:09;;;;;;;7.75;6.43;;;;;;;13.33;100.00;98371.53;5172125;27;20097;-58
2022/04/22 07:00:36;;;;;;;7.40;6.63;;;;;;;13.06;100.00;98357.50;5172255;27;20045;-58
2022/04/22 07:03:04;;;;;;;7.70;6.13;;;;;;;12.78;100.00;98369.41;5172034;27;20050;-58
2022/04/22 07:05:31;;;;;;;10.48;7.25;;;;;;;12.32;100.00;98402.50;5172340;27;20469;-58
2022/04/22 07:07:59;;;;;;;10.68;6.82;;;;;;;11.80;100.00;98452.34;5171916;27;20053;-58
2022/04/22 07:10:26;;;;;;;8.95;6.68;;;;;;;11.20;100.00;98505.88;5171946;27;20144;-58
2022/04/22 07:12:56;;;;;;;8.18;6.82;;;;;;;10.81;100.00;98627.06;5172088;27;20054;-58
2022/04/22 07:15:23;;;;;;;11.52;6.80;;;;;;;10.25;100.00;98632.78;5172062;27;20049;-57
2022/04/22 07:17:50;;;;;;;10.20;6.40;;;;;;;10.24;100.00;98770.94;5172125;27;20488;-57
2022/04/22 07:20:17;;;;;;;8.27;6.95;;;;;;;10.37;100.00;98816.16;5171693;27;20547;-57
2022/04/22 07:22:44;;;;;;;8.38;6.65;;;;;;;10.34;100.00;98841.53;5172021;27;20056;-58
2022/04/22 07:25:12;;;;;;;10.38;6.70;;;;;;;10.32;100.00;98843.84;5171676;27;20046;-57
2022/04/22 07:27:39;;;;;;;16.77;6.85;;;;;;;10.44;100.00;98969.69;5172070;27;20052;-57
2022/04/22 07:30:08;;;;;;;10.25;7.47;;;;;;;10.69;100.00;98897.97;5171797;27;20090;-56
2022/04/22 07:32:37;;;;;;;9.55;6.70;;;;;;;10.88;100.00;98798.34;5171759;27;20053;-57
2022/04/22 07:35:05;;;;;;;6.78;6.05;;;;;;;11.30;100.00;98765.03;5171540;27;20050;-57
2022/04/22 07:37:33;;;;;;;7.47;5.90;;;;;;;11.05;100.00;98639.41;5172787;27;20046;-57
2022/04/22 07:40:00;;;;;;;9.00;6.28;;;;;;;10.65;100.00;98681.38;5175387;27;20091;-57
2022/04/22 07:42:28;;;;;;;8.05;6.30;;;;;;;10.62;100.00;98824.66;5175412;27;20050;-57
2022/04/22 07:47:44;;;;;;;10.55;6.68;;;;;;;9.86;100.00;98868.56;5175116;27;20044;-57
2022/04/22 07:50:13;;;;;;;10.15;6.57;;;;;;;9.99;100.00;99022.53;5175537;27;20046;-57
2022/04/22 07:52:39;;;;;;;7.47;5.22;;;;;;;10.16;100.00;99000.13;5174946;27;20050;-56
2022/04/22 07:55:06;;;;;;;7.45;6.18;;;;;;;9.89;100.00;98985.59;5175171;27;20050;-58
2022/04/22 07:57:33;;;;;;;6.93;4.97;;;;;;;9.67;100.00;99000.84;5174706;27;20046;-57
2022/04/22 07:59:59;;;;;;;9.00;6.60;;;;;;;9.81;100.00;99113.34;5175059;27;20053;-58
2022/04/22 08:02:25;;;;;;;7.10;5.90;;;;;;;9.90;100.00;99093.97;5175112;27;20042;-58
2022/04/22 08:04:52;;;;;;;8.82;6.45;;;;;;;9.92;100.00;99063.50;5175030;27;20047;-57
2022/04/22 08:07:19;;;;;;;8.55;6.50;;;;;;;9.65;100.00;99042.25;5174963;27;20042;-57
2022/04/22 08:09:46;;;;;;;7.65;6.50;;;;;;;9.63;100.00;99142.31;5175046;27;20046;-57
2022/04/22 08:12:12;;;;;;;8.43;5.60;;;;;;;9.57;100.00;99067.91;5175234;27;20042;-56
2022/04/22 08:14:39;;;;;;;10.25;6.18;;;;;;;9.43;100.00;99120.41;5174610;27;20050;-57
2022/04/22 08:17:05;;;;;;;7.60;6.28;;;;;;;9.75;100.00;99187.94;5175022;27;20501;-57
2022/04/22 08:19:32;;;;;;;11.13;5.95;;;;;;;9.66;100.00;99090.41;5174664;27;20560;-55
2022/04/22 08:21:59;;;;;;;8.05;6.05;;;;;;;9.59;100.00;99114.06;5174968;27;20049;-57
2022/04/22 08:24:25;;;;;;;9.75;6.88;;;;;;;9.59;100.00;99083.97;5174687;27;20508;-57
2022/04/22 08:26:52;;;;;;;8.45;6.07;;;;;;;9.75;100.00;99133.16;5174673;27;20054;-55
2022/04/22 08:29:18;;;;;;;9.02;6.38;;;;;;;9.75;100.00;99002.56;5174396;27;20071;-55
2022/04/22 08:31:45;;;;;;;9.20;6.10;;;;;;;9.71;100.00;98987.22;5174461;27;20050;-54
2022/04/22 08:34:11;;;;;;;11.13;6.47;;;;;;;9.61;100.00;98983.13;5174395;27;20065;-57
2022/04/22 08:36:37;;;;;;;10.43;6.50;;;;;;;9.62;100.00;98992.91;5174579;27;20502;-56
2022/04/22 08:39:04;;;;;;;7.25;6.10;;;;;;;9.46;100.00;98978.53;5174658;27;20065;-54
2022/04/22 08:41:34;;;;;;;8.90;6.05;;;;;;;9.25;100.00;99056.28;5174654;27;20047;-57
2022/04/22 08:44:01;;;;;;;8.52;6.35;;;;;;;9.34;100.00;99147.16;5174784;27;20584;-57
2022/04/22 08:51:55;;;;;;;15.15;7.07;;;;;;;9.59;100.00;99166.84;5174628;27;20091;-57
2022/04/22 08:54:22;;;;;;;10.85;6.47;;;;;;;9.70;100.00;99134.25;5174325;27;20192;-57
2022/04/22 08:56:50;;;;;;;10.10;5.78;;;;;;;10.27;100.00;99022.28;5174395;27;20049;-54
2022/04/22 08:59:16;;;;;;;6.50;5.53;;;;;;;10.27;100.00;98935.41;5174179;27;20082;-58
2022/04/22 09:01:42;;;;;;;11.63;5.55;;;;;;;10.32;100.00;98921.34;5174335;27;20046;-62
2022/04/22 09:04:08;;;;;;;8.32;5.55;;;;;;;9.85;100.00;98820.47;5174278;27;20090;-61
2022/04/22 09:06:35;;;;;;;13.80;5.53;;;;;;;9.89;100.00;98928.88;5174193;27;20046;-57
2022/04/22 09:09:04;;;;;;;9.27;5.57;;;;;;;9.79;100.00;98907.59;5174337;27;20132;-62
2022/04/22 09:11:31;;;;;;;12.73;5.53;;;;;;;10.08;100.00;98908.84;5172990;27;20043;-62
2022/04/22 09:14:00;;;;;;;8.07;6.15;;;;;;;9.93;100.00;98893.38;5173558;27;20050;-63
2022/04/22 09:16:27;;;;;;;8.90;5.75;;;;;;;9.84;100.00;98881.88;5174696;27;20102;-62
2022/04/22 09:19:00;;;;;;;7.57;5.38;;;;;;;10.10;100.00;98917.50;5174089;27;20058;-57
2022/04/22 09:21:26;;;;;;;8.85;5.30;;;;;;;10.29;100.00;98896.66;5174212;27;20046;-58
2022/04/22 09:23:53;;;;;;;7.70;5.90;;;;;;;10.36;100.00;98863.88;5173987;27;20103;-58
2022/04/22 09:26:21;;;;;;;8.10;5.30;;;;;;;10.40;100.00;98812.66;5174356;27;20458;-58
2022/04/22 09:28:57;;;;;;;10.82;5.70;;;;;;;10.30;100.00;98762.03;5173783;27;20519;-57
2022/04/22 09:31:24;;;;;;;9.85;5.53;;;;;;;10.37;100.00;98794.22;5173501;27;20050;-58
2022/04/22 09:33:51;;;;;;;9.38;5.75;;;;;;;10.38;100.00;98686.19;5173367;27;20424;-58
2022/04/22 09:44:56;;;;;;;7.20;5.30;;;;;;;10.16;100.00;98624.06;5173660;27;20119;-58
2022/04/22 09:47:26;;;;;;;6.70;5.00;;;;;;;10.44;100.00;98736.75;5173446;27;20449;-58
2022/04/22 09:49:53;;;;;;;8.27;5.50;;;;;;;10.53;100.00;98593.94;5173470;27;20046;-57
2022/04/22 09:52:26;;;;;;;7.97;5.78;;;;;;;10.71;100.00;98583.91;5173036;27;20050;-57
2022/04/22 09:54:56;;;;;;;7.55;5.85;;;;;;;11.17;100.00;98536.03;5173706;27;20057;-59
2022/04/22 09:57:22;;;;;;;6.97;5.30;;;;;;;11.18;100.00;98475.28;5173597;27;20050;-58
2022/04/22 09:59:48;;;;;;;6.60;5.50;;;;;;;11.12;100.00;98508.97;5173038;27;20050;-57
2022/04/22 10:02:21;;;;;;;6.30;5.28;;;;;;;10.97;100.00;98517.13;5166792;27;20069;-58
2022/04/22 10:04:48;;;;;;;6.18;5.13;;;;;;;10.93;100.00;98526.47;5152608;27;20090;-57
2022/04/22 10:07:16;;;;;;;10.13;4.57;;;;;;;10.54;100.00;98489.41;5152917;27;20046;-57
2022/04/22 10:09:44;;;;;;;6.93;4.70;;;;;;;10.25;100.00;98510.28;5152580;27;20046;-57
2022/04/22 10:12:15;;;;;;;6.20;5.00;;;;;;;10.53;100.00;98607.63;5152707;27;20527;-57
2022/04/22 10:14:43;;;;;;;5.35;4.55;;;;;;;10.54;100.00;98535.22;5152218;27;20061;-57
2022/04/22 10:17:11;;;;;;;6.40;4.88;;;;;;;10.56;100.00;98543.84;5152221;27;20054;-58
2022/04/22 10:19:39;;;;;;;6.72;5.00;;;;;;;10.45;100.00;98562.94;5152222;27;20114;-58
2022/04/22 10:22:07;;;;;;;8.43;4.80;;;;;;;10.30;100.00;98559.31;5152039;27;20421;-59
2022/04/22 10:24:33;;;;;;;6.53;5.20;;;;;;;10.33;100.00;98561.28;5152445;27;20119;-64
2022/04/22 10:27:01;;;;;;;7.78;5.30;;;;;;;10.25;100.00;98558.81;5152083;27;20051;-66
2022/04/22 10:29:29;;;;;;;5.32;4.68;;;;;;;10.14;100.00;98597.84;5152192;27;20043;-61
2022/04/22 10:31:56;;;;;;;8.00;5.43;;;;;;;10.01;100.00;98618.44;5152209;27;20046;-55
2022/04/22 10:34:38;;;;;;;6.72;5.18;;;;;;;10.06;100.00;98661.13;5151861;27;20046;-62
2022/04/22 10:37:04;;;;;;;5.53;4.85;;;;;;;10.11;100.00;98663.56;5151866;27;20047;-66
2022/04/22 10:39:34;;;;;;;5.45;4.68;;;;;;;10.25;100.00;98636.31;5170941;27;20058;-61
2022/04/22 10:42:00;;;;;;;5.70;4.95;;;;;;;10.25;100.00;98573.31;5172560;27;20046;-61
2022/04/22 10:47:15;;;;;;;6.95;4.80;;;;;;;10.43;100.00;98515.16;5151822;27;20617;-64
2022/04/22 10:49:43;;;;;;;7.72;5.28;;;;;;;10.64;100.00;98476.97;5172013;27;20550;-61
2022/04/22 10:52:14;;;;;;;10.73;4.95;;;;;;;10.76;100.00;98486.81;5172174;27;20524;-62
2022/04/22 10:55:09;;;;;;;6.35;4.93;;;;;;;11.09;100.00;98441.94;5170667;27;20046;-62
2022/04/22 10:57:35;;;;;;;6.45;4.85;;;;;;;10.94;100.00;98356.06;5151791;27;20065;-62
2022/04/22 11:00:27;;;;;;;8.25;4.35;;;;;;;11.06;100.00;98374.13;5151785;27;20047;-62
2022/04/22 11:03:08;;;;;;;7.40;5.20;;;;;;;10.92;100.00;98407.78;5151570;27;20429;-63
2022/04/22 11:05:38;;;;;;;7.53;5.10;;;;;;;10.21;100.00;98640.19;5151697;27;20043;-61
2022/04/22 11:08:07;;;;;;;8.15;6.55;;;;;;;9.70;100.00;99054.88;5151437;27;20050;-61
2022/04/22 11:11:02;;;;;;;8.32;5.95;;;;;;;9.55;100.00;99379.47;5159882;27;20046;-62
2022/04/22 11:13:30;;;;;;;9.50;5.82;;;;;;;9.62;100.00;99491.88;5150759;27;20046;-63
